createdAt,value
2022-10-01T00:01:10.280Z,5.28
2022-10-01T00:03:37.364Z,5.35
2022-10-01T00:06:11.082Z,5.55
2022-10-01T00:08:39.972Z,5.25
2022-10-01T00:11:24.962Z,5.00
2022-10-01T00:13:53.365Z,4.82
2022-10-01T00:16:27.676Z,5.20
2022-10-01T00:18:55.356Z,5.10
2022-10-01T00:21:24.514Z,5.45
2022-10-01T00:24:04.388Z,5.20
2022-10-01T00:26:34.002Z,5.25
2022-10-01T00:29:04.472Z,5.45
2022-10-01T00:31:32.289Z,5.45
2022-10-01T00:34:00.835Z,5.57
2022-10-01T00:36:27.452Z,5.80
2022-10-01T00:38:58.555Z,5.47
2022-10-01T00:41:26.800Z,4.70
2022-10-01T00:43:57.832Z,5.78
2022-10-01T00:46:36.122Z,5.53
2022-10-01T00:49:06.951Z,5.17
2022-10-01T00:51:39.676Z,5.70
2022-10-01T00:54:11.386Z,5.63
2022-10-01T00:56:38.475Z,5.38
2022-10-01T00:59:06.147Z,4.97
2022-10-01T01:01:37.650Z,5.03
2022-10-01T01:04:16.186Z,5.35
2022-10-01T01:06:46.865Z,4.30
2022-10-01T01:09:13.753Z,4.47
2022-10-01T01:12:04.187Z,4.60
2022-10-01T01:14:48.860Z,4.27
2022-10-01T01:17:35.048Z,3.85
2022-10-01T01:20:20.457Z,4.60
2022-10-01T01:23:18.954Z,3.70
2022-10-01T01:26:16.272Z,4.05
2022-10-01T01:28:47.553Z,3.80
2022-10-01T01:31:22.849Z,3.88
2022-10-01T01:33:53.593Z,3.10
2022-10-01T01:36:28.916Z,3.55
2022-10-01T01:39:05.259Z,3.88
2022-10-01T01:41:37.049Z,3.53
2022-10-01T01:44:06.835Z,4.05
2022-10-01T01:46:36.678Z,3.50
2022-10-01T01:49:05.191Z,3.40
2022-10-01T01:51:53.896Z,3.30
2022-10-01T01:54:20.789Z,3.63
2022-10-01T01:56:50.145Z,3.40
2022-10-01T01:59:19.428Z,2.72
2022-10-01T02:01:46.546Z,2.63
2022-10-01T02:04:21.040Z,3.00
2022-10-01T02:07:10.824Z,2.50
2022-10-01T02:10:00.653Z,2.20
2022-10-01T02:12:44.825Z,2.80
2022-10-01T02:15:22.171Z,2.40
2022-10-01T02:18:10.444Z,2.60
2022-10-01T02:20:45.740Z,2.33
2022-10-01T02:23:19.602Z,2.60
2022-10-01T02:25:55.143Z,2.25
2022-10-01T02:28:23.704Z,2.60
2022-10-01T02:30:55.721Z,2.30
2022-10-01T02:33:27.188Z,1.93
2022-10-01T02:35:56.040Z,2.10
2022-10-01T02:38:24.762Z,2.10
2022-10-01T02:40:54.599Z,2.05
2022-10-01T02:43:32.569Z,1.95
2022-10-01T02:46:21.455Z,1.90
2022-10-01T02:48:48.572Z,1.42
2022-10-01T02:51:32.417Z,2.05
2022-10-01T02:54:09.107Z,2.00
2022-10-01T02:56:56.375Z,1.80
2022-10-01T02:59:23.023Z,1.70
2022-10-01T03:01:49.782Z,1.73
2022-10-01T03:04:16.465Z,1.88
2022-10-01T03:06:43.019Z,1.80
2022-10-01T03:09:09.636Z,1.95
2022-10-01T03:11:36.401Z,1.80
2022-10-01T03:14:03.911Z,2.03
2022-10-01T03:16:30.475Z,2.00
2022-10-01T03:18:57.538Z,2.13
2022-10-01T03:21:24.263Z,1.92
2022-10-01T03:23:50.821Z,1.80
2022-10-01T03:26:17.377Z,2.20
2022-10-01T03:28:43.926Z,1.83
2022-10-01T03:31:11.377Z,2.20
2022-10-01T03:33:38.028Z,2.13
2022-10-01T03:36:04.949Z,2.20
2022-10-01T03:38:31.815Z,1.77
2022-10-01T03:40:58.412Z,2.67
2022-10-01T03:43:26.961Z,2.13
2022-10-01T03:45:53.635Z,2.25
2022-10-01T03:48:21.041Z,2.47
2022-10-01T03:50:58.702Z,2.05
2022-10-01T03:53:27.143Z,2.38
2022-10-01T03:55:54.901Z,2.30
2022-10-01T03:58:21.494Z,2.90
2022-10-01T04:00:48.371Z,2.60
2022-10-01T04:03:16.243Z,2.88
2022-10-01T04:05:43.887Z,2.90
2022-10-01T04:08:11.977Z,2.90
2022-10-01T04:10:39.161Z,2.60
2022-10-01T04:13:06.295Z,3.10
2022-10-01T04:15:33.231Z,3.20
2022-10-01T04:18:00.512Z,3.60
2022-10-01T04:20:27.071Z,3.47
2022-10-01T04:22:53.620Z,3.38
2022-10-01T04:25:20.380Z,3.47
2022-10-01T04:27:57.606Z,3.63
2022-10-01T04:30:25.588Z,3.47
2022-10-01T04:32:52.154Z,3.70
2022-10-01T04:35:18.864Z,3.50
2022-10-01T04:37:45.596Z,3.67
2022-10-01T04:40:12.167Z,3.72
2022-10-01T04:42:43.525Z,3.83
2022-10-01T04:45:10.819Z,4.07
2022-10-01T04:47:37.805Z,4.05
2022-10-01T04:50:04.856Z,4.33
2022-10-01T04:52:31.429Z,4.15
2022-10-01T04:54:57.976Z,4.20
2022-10-01T04:57:24.549Z,4.20
2022-10-01T04:59:51.093Z,4.38
2022-10-01T05:02:18.091Z,3.93
2022-10-01T05:04:44.672Z,4.28
2022-10-01T05:07:11.232Z,4.75
2022-10-01T05:09:37.771Z,4.45
2022-10-01T05:12:04.393Z,4.70
2022-10-01T05:14:31.298Z,4.90
2022-10-01T05:16:58.373Z,4.78
2022-10-01T05:19:28.847Z,4.55
2022-10-01T05:21:55.871Z,4.97
2022-10-01T05:24:22.428Z,4.78
2022-10-01T05:26:49.010Z,4.87
2022-10-01T05:29:16.230Z,4.88
2022-10-01T05:31:44.140Z,5.15
2022-10-01T05:34:10.986Z,4.57
2022-10-01T05:36:37.619Z,5.25
2022-10-01T05:39:04.599Z,4.90
2022-10-01T05:41:31.202Z,5.03
2022-10-01T05:43:57.874Z,4.95
2022-10-01T05:46:24.632Z,4.85
2022-10-01T05:48:51.336Z,4.68
2022-10-01T05:51:18.431Z,4.67
2022-10-01T05:53:50.511Z,5.07
2022-10-01T05:56:17.289Z,4.93
2022-10-01T05:58:43.856Z,5.35
2022-10-01T06:01:10.394Z,5.47
2022-10-01T06:03:38.714Z,4.93
2022-10-01T06:06:05.941Z,4.97
2022-10-01T06:08:37.589Z,5.25
2022-10-01T06:11:04.560Z,5.25
2022-10-01T06:13:31.905Z,5.22
2022-10-01T06:15:58.524Z,4.73
2022-10-01T06:18:25.121Z,4.75
2022-10-01T06:20:51.677Z,4.50
2022-10-01T06:23:18.240Z,5.30
2022-10-01T06:25:45.204Z,4.93
2022-10-01T06:28:14.392Z,4.60
2022-10-01T06:30:41.408Z,4.90
2022-10-01T06:33:11.005Z,5.07
2022-10-01T06:35:45.016Z,5.20
2022-10-01T06:38:11.708Z,5.07
2022-10-01T06:40:39.183Z,5.10
2022-10-01T06:43:07.802Z,5.10
2022-10-01T06:45:40.447Z,5.40
2022-10-01T06:48:07.193Z,5.03
2022-10-01T06:50:34.642Z,4.65
2022-10-01T06:53:02.001Z,4.60
2022-10-01T06:55:31.202Z,5.07
2022-10-01T06:57:59.715Z,5.25
2022-10-01T07:00:27.407Z,5.35
2022-10-01T07:02:55.711Z,4.93
2022-10-01T07:05:23.809Z,5.20
2022-10-01T07:07:50.937Z,5.50
2022-10-01T07:10:21.464Z,4.95
2022-10-01T07:12:49.181Z,4.72
2022-10-01T07:15:22.451Z,5.43
2022-10-01T07:17:50.735Z,4.50
2022-10-01T07:20:19.140Z,4.93
2022-10-01T07:22:46.903Z,4.95
2022-10-01T07:25:14.091Z,4.88
2022-10-01T07:27:40.854Z,4.88
2022-10-01T07:30:08.419Z,4.87
2022-10-01T07:32:35.306Z,4.75
2022-10-01T07:35:02.303Z,4.78
2022-10-01T07:37:28.902Z,4.63
2022-10-01T07:39:55.484Z,3.95
2022-10-01T07:42:22.056Z,4.03
2022-10-01T07:44:48.672Z,3.65
2022-10-01T07:47:15.421Z,3.92
2022-10-01T07:49:42.101Z,3.80
2022-10-01T07:52:13.136Z,4.30
2022-10-01T07:54:40.224Z,3.50
2022-10-01T07:57:06.800Z,3.40
2022-10-01T07:59:33.423Z,3.88
2022-10-01T08:02:00.870Z,3.40
2022-10-01T08:04:45.926Z,3.47
2022-10-01T08:07:12.512Z,2.67
2022-10-01T08:09:39.999Z,3.10
2022-10-01T08:12:06.611Z,2.92
2022-10-01T08:14:33.268Z,3.08
2022-10-01T08:16:59.958Z,2.80
2022-10-01T08:19:26.827Z,2.87
2022-10-01T08:21:53.385Z,3.00
2022-10-01T08:24:20.208Z,3.10
2022-10-01T08:26:52.352Z,2.72
2022-10-01T08:29:18.984Z,3.40
2022-10-01T08:31:45.657Z,2.50
2022-10-01T08:34:12.249Z,2.67
2022-10-01T08:36:38.830Z,2.70
2022-10-01T08:39:05.401Z,2.33
2022-10-01T08:41:56.427Z,2.60
2022-10-01T08:44:37.359Z,2.50
2022-10-01T08:47:11.851Z,2.55
2022-10-01T08:49:48.279Z,2.60
2022-10-01T08:52:31.685Z,1.90
2022-10-01T08:55:04.095Z,2.22
2022-10-01T08:57:34.739Z,2.20
2022-10-01T09:00:07.660Z,2.30
2022-10-01T09:02:38.296Z,2.47
2022-10-01T09:05:39.617Z,2.20
2022-10-01T09:08:46.290Z,2.42
2022-10-01T09:11:36.961Z,2.27
2022-10-01T09:14:24.848Z,2.13
2022-10-01T09:17:20.955Z,1.90
2022-10-01T09:20:05.484Z,2.47
2022-10-01T09:22:39.458Z,2.25
2022-10-01T09:25:09.073Z,2.67
2022-10-01T09:27:37.511Z,2.30
2022-10-01T09:30:15.750Z,2.30
2022-10-01T09:32:53.557Z,1.98
2022-10-01T09:35:51.633Z,2.10
2022-10-01T09:38:39.855Z,2.53
2022-10-01T09:41:08.918Z,2.40
2022-10-01T09:43:38.853Z,2.65
2022-10-01T09:46:13.188Z,2.33
2022-10-01T09:49:01.111Z,2.72
2022-10-01T09:51:42.586Z,2.80
2022-10-01T09:54:15.126Z,2.75
2022-10-01T09:56:47.924Z,2.50
2022-10-01T09:59:22.673Z,2.85
2022-10-01T10:01:53.422Z,2.55
2022-10-01T10:04:23.195Z,2.50
2022-10-01T10:06:51.821Z,2.13
2022-10-01T10:09:24.248Z,2.45
2022-10-01T10:11:51.563Z,2.30
2022-10-01T10:14:25.610Z,2.22
2022-10-01T10:16:52.224Z,2.50
2022-10-01T10:19:27.734Z,2.33
2022-10-01T10:21:59.601Z,2.50
2022-10-01T10:24:34.583Z,2.75
2022-10-01T10:27:04.106Z,2.22
2022-10-01T10:29:36.460Z,2.20
2022-10-01T10:32:12.271Z,2.47
2022-10-01T10:34:42.440Z,2.20
2022-10-01T10:37:17.868Z,2.28
2022-10-01T10:39:50.966Z,2.47
2022-10-01T10:42:23.156Z,2.20
2022-10-01T10:44:54.857Z,2.35
2022-10-01T10:47:22.322Z,2.60
2022-10-01T10:50:00.097Z,2.50
2022-10-01T10:52:33.201Z,2.30
2022-10-01T10:55:01.591Z,2.10
2022-10-01T10:57:33.998Z,2.50
2022-10-01T11:00:05.697Z,2.42
2022-10-01T11:02:33.543Z,1.90
2022-10-01T11:05:05.167Z,2.55
2022-10-01T11:07:32.160Z,2.37
2022-10-01T11:10:17.733Z,2.60
2022-10-01T11:13:02.855Z,2.15
2022-10-01T11:16:00.688Z,2.10
2022-10-01T11:18:52.629Z,2.28
2022-10-01T11:21:50.758Z,2.70
2022-10-01T11:24:32.889Z,2.25
2022-10-01T11:27:03.383Z,2.55
2022-10-01T11:29:54.455Z,2.30
2022-10-01T11:32:33.968Z,2.28
2022-10-01T11:35:04.530Z,2.30
2022-10-01T11:37:41.407Z,2.10
2022-10-01T11:40:41.465Z,2.38
2022-10-01T11:43:23.740Z,2.35
2022-10-01T11:45:56.741Z,2.10
2022-10-01T11:48:26.636Z,2.03
2022-10-01T11:50:57.952Z,1.95
2022-10-01T11:53:37.580Z,2.05
2022-10-01T11:56:40.860Z,3.08
2022-10-01T11:59:43.140Z,2.20
2022-10-01T12:02:51.119Z,1.93
2022-10-01T12:05:26.751Z,2.30
2022-10-01T12:08:08.913Z,2.30
2022-10-01T12:10:38.792Z,2.10
2022-10-01T12:13:16.356Z,2.00
2022-10-01T12:15:54.406Z,2.10
2022-10-01T12:18:30.215Z,2.08
2022-10-01T12:21:01.349Z,2.15
2022-10-01T12:23:32.140Z,2.40
2022-10-01T12:26:13.367Z,2.50
2022-10-01T12:29:02.153Z,2.10
2022-10-01T12:32:26.119Z,1.75
2022-10-01T12:35:18.416Z,2.05
2022-10-01T12:38:06.281Z,2.20
2022-10-01T12:40:40.385Z,2.38
2022-10-01T12:43:14.083Z,2.30
2022-10-01T12:45:52.372Z,2.13
2022-10-01T12:48:35.100Z,2.38
2022-10-01T12:51:36.985Z,2.60
2022-10-01T12:54:18.616Z,2.17
2022-10-01T12:57:11.587Z,2.53
2022-10-01T13:00:00.811Z,2.22
2022-10-01T13:02:45.969Z,2.30
2022-10-01T13:05:35.732Z,2.00
2022-10-01T13:08:17.583Z,2.10
2022-10-01T13:10:59.945Z,2.03
2022-10-01T13:13:32.862Z,2.17
2022-10-01T13:16:05.622Z,2.70
2022-10-01T13:18:49.039Z,3.00
2022-10-01T13:21:32.163Z,2.28
2022-10-01T13:24:04.793Z,2.30
2022-10-01T13:27:17.837Z,2.00
2022-10-01T13:29:59.342Z,2.65
2022-10-01T13:32:35.126Z,2.75
2022-10-01T13:35:24.171Z,2.17
2022-10-01T13:37:50.849Z,2.33
2022-10-01T13:40:32.711Z,2.58
2022-10-01T13:43:00.193Z,2.38
2022-10-01T13:45:46.003Z,2.42
2022-10-01T13:48:15.337Z,2.25
2022-10-01T13:51:04.231Z,2.23
2022-10-01T13:53:38.826Z,2.40
2022-10-01T13:56:05.873Z,2.10
2022-10-01T13:58:41.402Z,2.22
2022-10-01T14:01:47.846Z,2.28
2022-10-01T14:04:31.330Z,2.80
2022-10-01T14:07:10.911Z,2.50
2022-10-01T14:09:45.047Z,2.30
2022-10-01T14:12:34.758Z,2.38
2022-10-01T14:15:33.306Z,2.38
2022-10-01T14:18:03.927Z,2.07
2022-10-01T14:20:58.464Z,1.63
2022-10-01T14:23:48.407Z,2.13
2022-10-01T14:26:31.754Z,1.92
2022-10-01T14:29:16.919Z,2.45
2022-10-01T14:32:20.861Z,2.00
2022-10-01T14:34:58.942Z,2.00
2022-10-01T14:37:26.288Z,1.98
2022-10-01T14:40:19.628Z,2.30
2022-10-01T14:43:18.220Z,2.20
2022-10-01T14:46:03.040Z,2.20
2022-10-01T14:48:34.900Z,1.92
2022-10-01T14:51:04.278Z,2.25
2022-10-01T14:53:34.807Z,2.38
2022-10-01T14:56:08.668Z,2.47
2022-10-01T14:58:45.120Z,2.03
2022-10-01T15:01:38.016Z,2.22
2022-10-01T15:04:14.574Z,2.75
2022-10-01T15:06:42.708Z,2.00
2022-10-01T15:09:15.295Z,2.40
2022-10-01T15:11:44.627Z,1.93
2022-10-01T15:14:17.902Z,2.03
2022-10-01T15:16:44.959Z,2.20
2022-10-01T15:19:20.563Z,2.38
2022-10-01T15:22:08.486Z,2.47
2022-10-01T15:24:38.088Z,2.10
2022-10-01T15:27:05.519Z,2.75
2022-10-01T15:29:32.819Z,2.00
2022-10-01T15:32:01.397Z,2.30
2022-10-01T15:34:28.087Z,2.38
2022-10-01T15:36:55.337Z,1.90
2022-10-01T15:39:40.604Z,2.17
2022-10-01T15:42:21.719Z,2.10
2022-10-01T15:44:49.910Z,1.60
2022-10-01T15:47:31.843Z,2.28
2022-10-01T15:50:08.323Z,1.97
2022-10-01T15:53:08.316Z,1.77
2022-10-01T15:55:52.229Z,2.50
2022-10-01T15:58:31.949Z,2.28
2022-10-01T16:01:01.554Z,1.90
2022-10-01T16:03:33.526Z,1.83
2022-10-01T16:06:02.862Z,2.35
2022-10-01T16:08:48.415Z,1.77
2022-10-01T16:11:21.252Z,2.20
2022-10-01T16:13:50.518Z,2.35
2022-10-01T16:16:21.769Z,1.70
2022-10-01T16:19:17.019Z,2.25
2022-10-01T16:21:43.819Z,2.10
2022-10-01T16:24:29.514Z,1.77
2022-10-01T16:27:01.017Z,2.42
2022-10-01T16:29:27.712Z,1.93
2022-10-01T16:31:55.854Z,2.00
2022-10-01T16:34:22.490Z,1.63
2022-10-01T16:36:50.159Z,2.00
2022-10-01T16:39:16.763Z,1.60
2022-10-01T16:42:01.405Z,2.10
2022-10-01T16:44:34.656Z,1.60
2022-10-01T16:47:01.200Z,1.75
2022-10-01T16:49:27.819Z,2.13
2022-10-01T16:51:55.327Z,2.35
2022-10-01T16:54:26.589Z,1.93
2022-10-01T16:56:55.140Z,2.17
2022-10-01T16:59:23.548Z,1.83
2022-10-01T17:01:54.541Z,2.17
2022-10-01T17:04:22.480Z,2.38
2022-10-01T17:06:49.201Z,2.40
2022-10-01T17:09:15.785Z,1.90
2022-10-01T17:11:43.388Z,2.10
2022-10-01T17:14:16.655Z,1.40
2022-10-01T17:16:43.465Z,2.00
2022-10-01T17:19:12.472Z,1.87
2022-10-01T17:21:39.292Z,1.73
2022-10-01T17:24:06.118Z,2.25
2022-10-01T17:26:33.082Z,1.88
2022-10-01T17:28:59.817Z,1.63
2022-10-01T17:31:27.288Z,2.03
2022-10-01T17:33:53.933Z,1.70
2022-10-01T17:36:20.492Z,2.10
2022-10-01T17:38:47.034Z,1.92
2022-10-01T17:41:13.583Z,1.85
2022-10-01T17:43:41.836Z,2.23
2022-10-01T17:46:08.548Z,1.83
2022-10-01T17:48:35.209Z,2.15
2022-10-01T17:51:07.510Z,1.77
2022-10-01T17:53:41.346Z,2.30
2022-10-01T17:56:27.496Z,2.13
2022-10-01T17:58:54.709Z,2.22
2022-10-01T18:01:22.227Z,2.72
2022-10-01T18:03:55.317Z,2.10
2022-10-01T18:06:23.461Z,2.05
2022-10-01T18:08:55.558Z,2.50
2022-10-01T18:11:24.457Z,2.17
2022-10-01T18:13:51.922Z,2.75
2022-10-01T18:16:19.695Z,2.42
2022-10-01T18:21:33.706Z,2.13
2022-10-01T18:24:04.210Z,2.60
2022-10-01T18:26:31.820Z,2.40
2022-10-01T18:28:58.729Z,2.28
2022-10-01T18:31:28.846Z,2.88
2022-10-01T18:33:58.438Z,2.40
2022-10-01T18:36:54.834Z,2.40
2022-10-01T18:39:26.427Z,2.40
2022-10-01T18:41:53.155Z,2.83
2022-10-01T18:44:20.868Z,2.45
2022-10-01T18:46:50.522Z,2.83
2022-10-01T18:49:35.967Z,2.60
2022-10-01T18:52:26.407Z,2.47
2022-10-01T18:55:01.018Z,2.17
2022-10-01T18:57:37.463Z,2.70
2022-10-01T19:00:14.581Z,2.40
2022-10-01T19:03:21.900Z,2.42
2022-10-01T19:06:04.232Z,2.33
2022-10-01T19:08:36.792Z,3.45
2022-10-01T19:11:17.817Z,2.28
2022-10-01T19:13:53.832Z,2.40
2022-10-01T19:16:45.273Z,2.95
2022-10-01T19:19:53.560Z,2.97
2022-10-01T19:22:30.965Z,2.25
2022-10-01T19:25:13.155Z,2.70
2022-10-01T19:28:00.948Z,2.63
2022-10-01T19:30:37.684Z,3.08
2022-10-01T19:33:11.026Z,2.80
2022-10-01T19:35:44.081Z,2.75
2022-10-01T19:38:25.221Z,3.13
2022-10-01T19:41:21.197Z,2.90
2022-10-01T19:44:02.021Z,2.63
2022-10-01T19:46:40.720Z,2.60
2022-10-01T19:49:08.516Z,2.80
2022-10-01T19:51:40.618Z,3.05
2022-10-01T19:54:17.955Z,3.10
2022-10-01T19:56:52.945Z,2.47
2022-10-01T19:59:20.632Z,2.83
2022-10-01T20:01:59.165Z,2.30
2022-10-01T20:05:10.488Z,2.67
2022-10-01T20:07:45.689Z,2.23
2022-10-01T20:10:20.519Z,2.60
2022-10-01T20:12:52.971Z,2.47
2022-10-01T20:15:37.000Z,2.50
2022-10-01T20:18:19.234Z,2.67
2022-10-01T20:20:48.612Z,2.17
2022-10-01T20:23:28.685Z,2.15
2022-10-01T20:26:14.389Z,2.97
2022-10-01T20:29:10.604Z,2.47
2022-10-01T20:32:06.712Z,2.65
2022-10-01T20:35:10.927Z,2.10
2022-10-01T20:37:54.452Z,2.35
2022-10-01T20:40:32.654Z,2.55
2022-10-01T20:43:10.588Z,2.30
2022-10-01T20:45:39.238Z,2.90
2022-10-01T20:48:41.084Z,2.60
2022-10-01T20:51:17.111Z,2.20
2022-10-01T20:53:50.180Z,2.30
2022-10-01T20:56:31.848Z,3.03
2022-10-01T20:59:18.122Z,2.13
2022-10-01T21:02:12.832Z,2.47
2022-10-01T21:04:47.408Z,2.53
2022-10-01T21:07:37.751Z,3.00
2022-10-01T21:10:15.927Z,2.25
2022-10-01T21:12:49.361Z,2.53
2022-10-01T21:15:16.042Z,2.33
2022-10-01T21:18:01.851Z,2.97
2022-10-01T21:20:46.444Z,3.00
2022-10-01T21:23:36.299Z,3.17
2022-10-01T21:26:24.582Z,2.92
2022-10-01T21:29:08.926Z,3.20
2022-10-01T21:31:45.033Z,2.97
2022-10-01T21:34:45.027Z,3.17
2022-10-01T21:37:22.453Z,3.28
2022-10-01T21:40:06.823Z,2.90
2022-10-01T21:43:18.319Z,3.13
2022-10-01T21:46:16.765Z,3.05
2022-10-01T21:48:48.203Z,3.10
2022-10-01T21:51:14.995Z,3.05
2022-10-01T21:54:01.815Z,3.15
2022-10-01T21:56:51.252Z,2.97
2022-10-01T21:59:26.751Z,3.28
2022-10-01T22:02:34.565Z,3.17
2022-10-01T22:05:15.332Z,3.92
2022-10-01T22:07:53.396Z,3.28
2022-10-01T22:10:34.078Z,3.53
2022-10-01T22:13:06.342Z,3.40
2022-10-01T22:15:39.801Z,3.53
2022-10-01T22:18:11.111Z,3.30
2022-10-01T22:20:40.898Z,3.55
2022-10-01T22:23:11.071Z,3.60
2022-10-01T22:26:00.978Z,4.07
2022-10-01T22:28:38.399Z,4.38
2022-10-01T22:31:10.570Z,4.15
2022-10-01T22:33:39.721Z,4.15
2022-10-01T22:36:11.649Z,3.77
2022-10-01T22:38:53.796Z,3.60
2022-10-01T22:41:52.728Z,4.07
2022-10-01T22:44:22.179Z,3.63
2022-10-01T22:47:13.810Z,3.25
2022-10-01T22:50:05.340Z,3.53
2022-10-01T22:52:39.109Z,3.40
2022-10-01T22:55:44.138Z,3.20
2022-10-01T22:58:32.182Z,3.00
2022-10-01T23:01:38.255Z,3.20
2022-10-01T23:04:30.216Z,2.90
2022-10-01T23:07:09.012Z,3.03
2022-10-01T23:09:39.899Z,2.75
2022-10-01T23:12:17.059Z,3.10
2022-10-01T23:15:30.852Z,2.70
2022-10-01T23:18:03.636Z,3.23
2022-10-01T23:20:32.499Z,2.85
2022-10-01T23:23:24.266Z,3.20
2022-10-01T23:25:56.737Z,3.30
2022-10-01T23:28:41.638Z,3.10
2022-10-01T23:31:30.047Z,3.57
2022-10-01T23:34:25.080Z,2.83
2022-10-01T23:37:03.621Z,3.45
2022-10-01T23:39:43.675Z,2.58
2022-10-01T23:42:23.995Z,2.75
2022-10-01T23:45:14.224Z,2.60
2022-10-01T23:48:06.117Z,2.90
2022-10-01T23:50:44.857Z,2.78
2022-10-01T23:53:25.023Z,2.50
2022-10-01T23:56:23.435Z,2.53
2022-10-01T23:59:08.954Z,2.57
